Saspamco, Texas
Current Conditions -  °F | °C
As of 2:53 PM on Thursday 27 Nov 2014 (Local Time) from KSSF Reporting Station
Clear Clear  
Wind Chill: 65°   Ceiling: Unl
Heat Index: 65°   Visibility: 10mi
Dew Point: 33°   Wind: 8mph
Humidity: 31%   Direction: 80°E
Pressure: 30.38"   Gusts: NA
Location:  29.231°N, 98.3845°W
Report Text: KSSF 272053Z 08007KT 10SM CLR 18/01 A3038 RMK AO2 SLP286 T01830006 56029
Loading
Personal Weather Stations






























Interactive Weather Map New forecast layout! Learn more

10-Day Weather Forecast

Advertisements
Track Severe Weather on mobile